createdAt,value
2018-09-30T00:00:35.194Z,0
2018-09-30T00:01:35.699Z,0
2018-09-30T00:02:36.923Z,0
2018-09-30T00:03:37.709Z,0
2018-09-30T00:04:38.214Z,0
2018-09-30T00:05:39.273Z,0
2018-09-30T00:06:40.337Z,0
2018-09-30T00:07:40.566Z,0
2018-09-30T00:08:42.906Z,0
2018-09-30T00:09:43.137Z,0
2018-09-30T00:10:43.643Z,0
2018-09-30T00:11:44.440Z,0
2018-09-30T00:12:45.505Z,0
2018-09-30T00:13:45.286Z,0
2018-09-30T00:14:46.068Z,0
2018-09-30T00:15:46.297Z,0
2018-09-30T00:16:48.356Z,0
2018-09-30T00:17:49.141Z,0
2018-09-30T00:18:49.924Z,0
2018-09-30T00:19:50.789Z,0
2018-09-30T00:20:52.124Z,0
2018-09-30T00:21:52.187Z,0
2018-09-30T00:22:52.688Z,0
2018-09-30T00:23:53.194Z,0
2018-09-30T00:24:54.254Z,0
2018-09-30T00:25:55.035Z,0
2018-09-30T00:26:55.540Z,0
2018-09-30T00:27:57.166Z,0
2018-09-30T00:28:57.516Z,0
2018-09-30T00:29:58.590Z,0
2018-09-30T00:30:58.824Z,0
2018-09-30T00:32:00.060Z,0
2018-09-30T00:33:01.861Z,0
2018-09-30T00:34:02.929Z,0
2018-09-30T00:35:03.717Z,0
2018-09-30T00:36:04.228Z,0
2018-09-30T00:37:05.043Z,0
2018-09-30T00:38:05.831Z,0
2018-09-30T00:39:06.627Z,0
2018-09-30T00:40:08.710Z,0
2018-09-30T00:41:08.222Z,0
2018-09-30T00:42:09.290Z,0
2018-09-30T00:43:09.801Z,0
2018-09-30T00:44:10.038Z,0
2018-09-30T00:45:11.835Z,0
2018-09-30T00:46:12.624Z,0
2018-09-30T00:47:14.282Z,0
2018-09-30T00:48:14.626Z,0
2018-09-30T00:49:15.703Z,0
2018-09-30T00:50:17.223Z,0
2018-09-30T00:51:17.011Z,0
2018-09-30T00:52:18.082Z,0
2018-09-30T00:53:19.436Z,0
2018-09-30T00:54:19.217Z,0
2018-09-30T00:55:19.451Z,0
2018-09-30T00:56:20.517Z,0
2018-09-30T00:57:21.027Z,0
2018-09-30T00:58:21.816Z,0
2018-09-30T00:59:23.461Z,0
2018-09-30T01:00:23.698Z,0
2018-09-30T01:01:26.322Z,0
2018-09-30T01:02:26.387Z,0
2018-09-30T01:03:26.905Z,0
2018-09-30T01:04:28.138Z,0
2018-09-30T01:05:29.204Z,0
2018-09-30T01:06:29.439Z,0
2018-09-30T01:07:32.066Z,0
2018-09-30T01:08:31.859Z,0
2018-09-30T01:09:32.652Z,0
2018-09-30T01:10:32.922Z,0
2018-09-30T01:11:33.715Z,0
2018-09-30T01:12:34.224Z,0
2018-09-30T01:13:35.012Z,0
2018-09-30T01:14:35.857Z,0
2018-09-30T01:15:37.203Z,0
2018-09-30T01:16:38.543Z,0
2018-09-30T01:17:39.611Z,0
2018-09-30T01:18:39.679Z,0
2018-09-30T01:19:40.752Z,0
2018-09-30T01:20:41.305Z,0
2018-09-30T01:21:42.924Z,0
2018-09-30T01:22:42.713Z,0
2018-09-30T01:23:43.776Z,0
2018-09-30T01:24:45.124Z,0
2018-09-30T01:25:44.917Z,0
2018-09-30T01:26:46.261Z,0
2018-09-30T01:27:46.324Z,0
2018-09-30T01:28:46.559Z,0
2018-09-30T01:29:48.627Z,0
2018-09-30T01:30:49.590Z,0
2018-09-30T01:31:50.944Z,0
2018-09-30T01:32:52.571Z,0
2018-09-30T01:33:52.080Z,0
2018-09-30T01:34:53.314Z,0
2018-09-30T01:35:54.826Z,0
2018-09-30T01:36:55.889Z,0
2018-09-30T01:37:55.956Z,0
2018-09-30T01:38:57.025Z,0
2018-09-30T01:39:58.092Z,0
2018-09-30T01:40:58.919Z,0
2018-09-30T01:42:00.264Z,0
2018-09-30T01:43:00.623Z,0
2018-09-30T01:44:01.727Z,0
2018-09-30T01:45:03.071Z,0
2018-09-30T01:46:03.143Z,0
2018-09-30T01:47:03.657Z,0
2018-09-30T01:48:04.453Z,0
2018-09-30T01:49:04.968Z,0
2018-09-30T01:50:06.608Z,0
2018-09-30T01:51:07.131Z,0
2018-09-30T01:52:08.198Z,0
2018-09-30T01:53:08.708Z,0
2018-09-30T01:54:09.222Z,0
2018-09-30T01:55:10.010Z,0
2018-09-30T01:56:11.080Z,0
2018-09-30T01:57:12.147Z,0
2018-09-30T01:58:13.215Z,0
2018-09-30T01:59:14.010Z,0
2018-09-30T02:00:15.078Z,0
2018-09-30T02:01:16.051Z,0
2018-09-30T02:02:17.562Z,0
2018-09-30T02:03:18.632Z,0
2018-09-30T02:04:19.703Z,0
2018-09-30T02:05:20.493Z,0
2018-09-30T02:06:22.403Z,0
2018-09-30T02:07:22.190Z,0
2018-09-30T02:08:24.537Z,0
2018-09-30T02:09:24.880Z,0
2018-09-30T02:10:25.396Z,0
2018-09-30T02:11:25.669Z,0
2018-09-30T02:12:27.011Z,0
2018-09-30T02:13:26.803Z,0
2018-09-30T02:14:27.873Z,0
2018-09-30T02:15:28.937Z,0
2018-09-30T02:16:29.170Z,0
2018-09-30T02:17:30.963Z,0
2018-09-30T02:18:31.476Z,0
2018-09-30T02:19:32.819Z,0
2018-09-30T02:20:32.332Z,0
2018-09-30T02:21:34.154Z,0
2018-09-30T02:22:34.387Z,0
2018-09-30T02:23:36.179Z,0
2018-09-30T02:24:36.414Z,0
2018-09-30T02:25:37.485Z,0
2018-09-30T02:26:38.272Z,0
2018-09-30T02:27:39.063Z,0
2018-09-30T02:28:40.413Z,0
2018-09-30T02:29:40.923Z,0
2018-09-30T02:30:41.718Z,0
2018-09-30T02:31:42.827Z,0
2018-09-30T02:32:42.896Z,0
2018-09-30T02:33:43.686Z,0
2018-09-30T02:34:44.034Z,0
2018-09-30T02:35:45.669Z,0
2018-09-30T02:36:45.454Z,0
2018-09-30T02:37:46.534Z,0
2018-09-30T02:38:48.438Z,0
2018-09-30T02:39:49.345Z,0
2018-09-30T02:40:48.857Z,0
2018-09-30T02:41:49.850Z,0
2018-09-30T02:42:51.199Z,0
2018-09-30T02:43:51.263Z,0
2018-09-30T02:44:52.328Z,0
2018-09-30T02:45:53.678Z,0
2018-09-30T02:46:54.023Z,0
2018-09-30T02:47:54.095Z,0
2018-09-30T02:48:55.167Z,0
2018-09-30T02:49:56.513Z,0
2018-09-30T02:50:57.585Z,0
2018-09-30T02:51:58.406Z,0
2018-09-30T02:53:00.076Z,0
2018-09-30T02:54:00.588Z,0
2018-09-30T02:55:01.375Z,0
2018-09-30T02:56:03.297Z,0
2018-09-30T02:57:03.934Z,0
2018-09-30T02:58:04.207Z,0
2018-09-30T02:59:05.293Z,0
2018-09-30T03:00:06.366Z,0
2018-09-30T03:01:07.433Z,0
2018-09-30T03:02:07.669Z,0
2018-09-30T03:03:09.852Z,0
2018-09-30T03:04:10.476Z,0
2018-09-30T03:05:10.828Z,0
2018-09-30T03:06:12.165Z,0
2018-09-30T03:07:12.787Z,0
2018-09-30T03:08:13.133Z,0
2018-09-30T03:09:13.481Z,0
2018-09-30T03:10:13.266Z,0
2018-09-30T03:11:15.167Z,0
2018-09-30T03:12:15.966Z,0
2018-09-30T03:13:17.880Z,0
2018-09-30T03:14:18.230Z,0
2018-09-30T03:15:19.859Z,0
2018-09-30T03:16:20.203Z,0
2018-09-30T03:17:21.269Z,0
2018-09-30T03:18:22.058Z,0
2018-09-30T03:19:23.128Z,0
2018-09-30T03:20:23.915Z,0
2018-09-30T03:21:24.154Z,0
2018-09-30T03:22:25.956Z,0
2018-09-30T03:23:27.026Z,0
2018-09-30T03:24:28.653Z,0
2018-09-30T03:25:28.746Z,0
2018-09-30T03:26:30.642Z,0
2018-09-30T03:27:30.984Z,0
2018-09-30T03:28:31.218Z,0
2018-09-30T03:29:33.298Z,0
2018-09-30T03:30:34.203Z,0
2018-09-30T03:31:34.829Z,0
2018-09-30T03:32:35.946Z,0
2018-09-30T03:33:37.864Z,0
2018-09-30T03:34:38.762Z,0
2018-09-30T03:35:38.108Z,0
2018-09-30T03:36:38.622Z,0
2018-09-30T03:37:39.692Z,0
2018-09-30T03:38:41.588Z,0
2018-09-30T03:39:42.684Z,0
2018-09-30T03:40:43.051Z,0
2018-09-30T03:41:44.125Z,0
2018-09-30T03:42:44.928Z,0
2018-09-30T03:43:44.996Z,0
2018-09-30T03:44:46.796Z,0
2018-09-30T03:45:47.583Z,0
2018-09-30T03:46:49.213Z,0
2018-09-30T03:47:48.741Z,0
2018-09-30T03:48:51.093Z,0
2018-09-30T03:49:51.718Z,0
2018-09-30T03:50:51.784Z,0
2018-09-30T03:51:52.856Z,0
2018-09-30T03:52:53.676Z,0
2018-09-30T03:53:55.022Z,0
2018-09-30T03:54:55.090Z,0
2018-09-30T03:55:56.152Z,0
2018-09-30T03:56:56.949Z,0
2018-09-30T03:57:58.858Z,0
2018-09-30T03:58:58.651Z,0
2018-09-30T03:59:59.453Z,0
2018-09-30T04:01:00.525Z,0
2018-09-30T04:02:00.759Z,0
2018-09-30T04:03:02.294Z,0
2018-09-30T04:04:03.361Z,0
2018-09-30T04:05:04.151Z,0
2018-09-30T04:06:05.791Z,0
2018-09-30T04:07:05.870Z,0
2018-09-30T04:08:06.660Z,0
2018-09-30T04:09:08.011Z,0
2018-09-30T04:10:10.636Z,0
2018-09-30T04:11:10.061Z,0
2018-09-30T04:12:11.409Z,0
2018-09-30T04:13:11.692Z,0
2018-09-30T04:14:12.482Z,0
2018-09-30T04:15:13.546Z,0
2018-09-30T04:16:15.169Z,0
2018-09-30T04:17:16.407Z,0
2018-09-30T04:18:16.161Z,0
2018-09-30T04:19:17.231Z,0
2018-09-30T04:20:18.578Z,0
2018-09-30T04:21:18.922Z,0
2018-09-30T04:22:19.157Z,0
2018-09-30T04:23:20.685Z,0
2018-09-30T04:24:21.304Z,0
2018-09-30T04:25:21.372Z,0
2018-09-30T04:26:21.162Z,0
2018-09-30T04:27:22.232Z,0
2018-09-30T04:28:23.581Z,0
2018-09-30T04:29:23.093Z,0
2018-09-30T04:30:24.439Z,0
2018-09-30T04:31:24.951Z,0
2018-09-30T04:32:26.852Z,0
2018-09-30T04:33:27.805Z,0
2018-09-30T04:34:28.319Z,0
2018-09-30T04:35:29.941Z,0
2018-09-30T04:36:30.569Z,0
2018-09-30T04:37:30.373Z,0
2018-09-30T04:38:30.891Z,0
2018-09-30T04:39:32.959Z,0
2018-09-30T04:40:33.027Z,0
2018-09-30T04:41:34.656Z,0
2018-09-30T04:42:34.724Z,0
2018-09-30T04:43:35.975Z,0
2018-09-30T04:44:37.036Z,0
2018-09-30T04:45:37.551Z,0
2018-09-30T04:46:38.338Z,0
2018-09-30T04:47:39.127Z,0
2018-09-30T04:48:40.744Z,0
2018-09-30T04:49:41.508Z,0
2018-09-30T04:50:42.569Z,0
2018-09-30T04:51:43.637Z,0
2018-09-30T04:52:44.266Z,0
2018-09-30T04:53:44.812Z,0
2018-09-30T04:54:46.153Z,0
2018-09-30T04:55:46.666Z,0
2018-09-30T04:56:48.015Z,0
2018-09-30T04:57:48.808Z,0
2018-09-30T04:58:49.319Z,0
2018-09-30T04:59:50.108Z,0
2018-09-30T05:00:51.177Z,0
2018-09-30T05:01:51.970Z,0
2018-09-30T05:02:52.492Z,0
2018-09-30T05:03:53.740Z,0
2018-09-30T05:04:54.531Z,0
2018-09-30T05:05:56.046Z,0
2018-09-30T05:06:55.556Z,0
2018-09-30T05:07:56.635Z,0
2018-09-30T05:08:57.699Z,0
2018-09-30T05:09:58.043Z,0
2018-09-30T05:10:58.562Z,0
2018-09-30T05:11:59.630Z,5.63
2018-09-30T05:13:00.147Z,5.63
2018-09-30T05:14:00.837Z,5.63
2018-09-30T05:15:02.735Z,5.63
2018-09-30T05:16:03.701Z,5.63
2018-09-30T05:17:02.905Z,5.63
2018-09-30T05:18:03.417Z,5.63
2018-09-30T05:19:04.207Z,5.63
2018-09-30T05:20:05.280Z,5.63
2018-09-30T05:21:05.794Z,11.25
2018-09-30T05:22:06.590Z,11.25
2018-09-30T05:23:07.659Z,11.25
2018-09-30T05:24:08.624Z,11.25
2018-09-30T05:25:10.266Z,11.25
2018-09-30T05:26:10.059Z,11.25
2018-09-30T05:27:11.409Z,16.88
2018-09-30T05:28:12.480Z,16.88
2018-09-30T05:29:13.549Z,16.88
2018-09-30T05:30:14.061Z,16.88
2018-09-30T05:31:16.471Z,16.88
2018-09-30T05:32:15.930Z,22.5
2018-09-30T05:33:16.723Z,22.5
2018-09-30T05:34:18.557Z,22.5
2018-09-30T05:35:19.628Z,22.5
2018-09-30T05:36:20.422Z,28.13
2018-09-30T05:37:22.233Z,28.13
2018-09-30T05:38:22.301Z,28.13
2018-09-30T05:39:22.817Z,28.13
2018-09-30T05:40:23.612Z,33.75
2018-09-30T05:41:24.129Z,33.75
2018-09-30T05:42:25.300Z,33.75
2018-09-30T05:43:25.806Z,33.75
2018-09-30T05:44:26.620Z,33.75
2018-09-30T05:45:27.711Z,39.38
2018-09-30T05:46:28.781Z,39.38
2018-09-30T05:47:29.018Z,39.38
2018-09-30T05:48:30.262Z,39.38
2018-09-30T05:49:32.603Z,45
2018-09-30T05:50:33.399Z,45
2018-09-30T05:51:33.916Z,56.25
2018-09-30T05:52:35.266Z,67.5
2018-09-30T05:53:35.338Z,56.25
2018-09-30T05:54:36.583Z,50.63
2018-09-30T05:55:37.103Z,50.63
2018-09-30T05:56:38.171Z,56.25
2018-09-30T05:57:41.710Z,56.25
2018-09-30T05:58:39.869Z,50.63
2018-09-30T05:59:41.219Z,50.63
2018-09-30T06:00:42.292Z,50.63
2018-09-30T06:01:42.643Z,56.25
2018-09-30T06:02:42.435Z,56.25
2018-09-30T06:03:43.227Z,56.25
2018-09-30T06:04:44.194Z,56.25
2018-09-30T06:05:44.987Z,56.25
2018-09-30T06:06:46.061Z,61.88
2018-09-30T06:07:47.134Z,61.88
2018-09-30T06:08:47.374Z,67.5
2018-09-30T06:09:48.172Z,67.5
2018-09-30T06:10:49.243Z,67.5
2018-09-30T06:11:50.313Z,67.5
2018-09-30T06:12:51.382Z,73.13
2018-09-30T06:13:53.594Z,73.13
2018-09-30T06:14:52.897Z,67.5
2018-09-30T06:15:55.577Z,67.5
2018-09-30T06:16:54.713Z,67.5
2018-09-30T06:17:56.616Z,73.13
2018-09-30T06:18:56.687Z,73.13
2018-09-30T06:19:58.045Z,78.75
2018-09-30T06:20:58.843Z,123.75
2018-09-30T06:21:59.913Z,101.25
2018-09-30T06:23:00.432Z,78.75
2018-09-30T06:24:02.227Z,78.75
2018-09-30T06:25:02.561Z,78.75
2018-09-30T06:26:03.416Z,78.75
2018-09-30T06:27:04.203Z,78.75
2018-09-30T06:28:03.999Z,78.75
2018-09-30T06:29:06.179Z,78.75
2018-09-30T06:30:05.972Z,78.75
2018-09-30T06:31:06.212Z,78.75
2018-09-30T06:32:08.922Z,78.75
2018-09-30T06:33:08.011Z,84.38
2018-09-30T06:34:09.092Z,84.38
2018-09-30T06:35:10.892Z,84.38
2018-09-30T06:36:10.964Z,84.38
2018-09-30T06:37:13.713Z,95.63
2018-09-30T06:38:13.447Z,90
2018-09-30T06:39:14.794Z,90
2018-09-30T06:40:15.944Z,95.63
2018-09-30T06:41:16.304Z,95.63
2018-09-30T06:42:17.225Z,151.88
2018-09-30T06:43:16.744Z,157.5
2018-09-30T06:44:17.830Z,112.5
2018-09-30T06:45:19.519Z,135
2018-09-30T06:46:19.289Z,292.5
2018-09-30T06:47:20.367Z,326.25
2018-09-30T06:48:20.997Z,309.38
2018-09-30T06:49:21.793Z,472.5
2018-09-30T06:50:22.872Z,635.63
2018-09-30T06:51:23.951Z,725.63
2018-09-30T06:52:24.484Z,871.88
2018-09-30T06:53:26.004Z,511.88
2018-09-30T06:54:26.800Z,129.38
2018-09-30T06:55:28.052Z,213.75
2018-09-30T06:56:29.407Z,703.13
2018-09-30T06:57:29.647Z,950.63
2018-09-30T06:58:31.721Z,438.75
2018-09-30T06:59:33.070Z,146.25
2018-09-30T07:00:34.142Z,140.63
2018-09-30T07:01:35.217Z,371.25
2018-09-30T07:02:36.572Z,613.13
2018-09-30T07:03:37.093Z,523.13
2018-09-30T07:04:37.615Z,663.75
2018-09-30T07:05:39.429Z,658.13
2018-09-30T07:06:41.069Z,669.38
2018-09-30T07:07:41.702Z,551.25
2018-09-30T07:08:42.498Z,382.5
2018-09-30T07:09:42.744Z,258.75
2018-09-30T07:10:44.585Z,208.13
2018-09-30T07:11:44.665Z,225
2018-09-30T07:12:45.473Z,185.63
2018-09-30T07:13:46.271Z,427.5
2018-09-30T07:14:46.794Z,495
2018-09-30T07:15:47.769Z,624.38
2018-09-30T07:16:50.511Z,1271.25
2018-09-30T07:17:50.393Z,1226.25
2018-09-30T07:18:51.475Z,545.63
2018-09-30T07:19:51.716Z,163.13
2018-09-30T07:20:52.966Z,241.88
2018-09-30T07:21:54.878Z,551.25
2018-09-30T07:22:54.687Z,607.5
2018-09-30T07:23:56.037Z,461.25
2018-09-30T07:24:56.837Z,393.75
2018-09-30T07:25:57.896Z,360
2018-09-30T07:26:59.251Z,376.88
2018-09-30T07:28:00.608Z,180
2018-09-30T07:28:59.853Z,180
2018-09-30T07:30:01.376Z,168.75
2018-09-30T07:31:02.178Z,168.75
2018-09-30T07:32:03.255Z,180
2018-09-30T07:33:03.501Z,174.38
2018-09-30T07:34:04.858Z,168.75
2018-09-30T07:35:05.379Z,219.38
2018-09-30T07:36:07.188Z,354.38
2018-09-30T07:37:07.708Z,320.63
2018-09-30T07:38:08.507Z,163.13
2018-09-30T07:39:09.025Z,163.13
2018-09-30T07:40:10.381Z,163.13
2018-09-30T07:41:10.626Z,163.13
2018-09-30T07:42:11.422Z,163.13
2018-09-30T07:43:11.951Z,163.13
2018-09-30T07:44:12.743Z,163.13
2018-09-30T07:45:13.544Z,163.13
2018-09-30T07:46:14.630Z,163.13
2018-09-30T07:47:14.708Z,163.13
2018-09-30T07:48:15.504Z,163.13
2018-09-30T07:49:16.308Z,163.13
2018-09-30T07:50:17.660Z,163.13
2018-09-30T07:51:18.741Z,163.13
2018-09-30T07:52:19.541Z,163.13
2018-09-30T07:53:20.899Z,163.13
2018-09-30T07:54:21.418Z,163.13
2018-09-30T07:55:21.934Z,163.13
2018-09-30T07:56:22.910Z,163.13
2018-09-30T07:57:24.708Z,163.13
2018-09-30T07:58:26.344Z,163.13
2018-09-30T07:59:26.141Z,163.13
2018-09-30T08:00:26.943Z,163.13
2018-09-30T08:01:28.023Z,163.13
2018-09-30T08:02:28.378Z,163.13
2018-09-30T08:03:30.014Z,163.13
2018-09-30T08:04:29.534Z,168.75
2018-09-30T08:05:31.887Z,168.75
2018-09-30T08:06:34.230Z,168.75
2018-09-30T08:07:32.382Z,168.75
2018-09-30T08:08:34.016Z,168.75
2018-09-30T08:09:33.537Z,163.13
2018-09-30T08:10:34.614Z,168.75
2018-09-30T08:11:34.691Z,168.75
2018-09-30T08:12:35.492Z,168.75
2018-09-30T08:13:36.295Z,168.75
2018-09-30T08:14:37.370Z,168.75
2018-09-30T08:15:38.171Z,174.38
2018-09-30T08:16:40.748Z,168.75
2018-09-30T08:17:40.129Z,168.75
2018-09-30T08:18:40.372Z,168.75
2018-09-30T08:19:41.896Z,168.75
2018-09-30T08:20:44.418Z,174.38
2018-09-30T08:21:43.706Z,174.38
2018-09-30T08:22:45.226Z,168.75
2018-09-30T08:23:46.026Z,168.75
2018-09-30T08:24:46.827Z,168.75
2018-09-30T08:25:47.626Z,168.75
2018-09-30T08:26:48.601Z,168.75
2018-09-30T08:27:49.961Z,168.75
2018-09-30T08:28:50.755Z,168.75
2018-09-30T08:29:51.229Z,168.75
2018-09-30T08:30:53.288Z,168.75
2018-09-30T08:31:53.713Z,168.75
2018-09-30T08:32:54.245Z,168.75
2018-09-30T08:33:55.600Z,168.75
2018-09-30T08:34:56.674Z,168.75
2018-09-30T08:35:57.474Z,168.75
2018-09-30T08:36:57.725Z,174.38
2018-09-30T08:37:59.246Z,174.38
2018-09-30T08:39:00.046Z,180
2018-09-30T08:40:01.832Z,191.25
2018-09-30T08:41:01.999Z,208.13
2018-09-30T08:42:02.523Z,208.13
2018-09-30T08:43:03.043Z,230.63
2018-09-30T08:44:04.161Z,241.88
2018-09-30T08:45:04.315Z,275.63
2018-09-30T08:46:05.839Z,731.25
2018-09-30T08:47:08.445Z,703.13
2018-09-30T08:48:09.071Z,995.63
2018-09-30T08:49:10.290Z,748.13
2018-09-30T08:50:10.650Z,450
2018-09-30T08:51:11.176Z,185.63
2018-09-30T08:52:11.416Z,185.63
2018-09-30T08:53:12.216Z,185.63
2018-09-30T08:54:13.030Z,185.63
2018-09-30T08:55:13.541Z,208.13
2018-09-30T08:56:16.884Z,213.75
2018-09-30T08:57:15.860Z,191.25
2018-09-30T08:58:17.379Z,191.25
2018-09-30T08:59:18.738Z,191.25
2018-09-30T09:00:19.652Z,191.25
2018-09-30T09:01:19.620Z,191.25
2018-09-30T09:02:20.140Z,191.25
2018-09-30T09:03:21.773Z,191.25
2018-09-30T09:04:22.016Z,191.25
2018-09-30T09:05:23.816Z,191.25
2018-09-30T09:06:25.466Z,191.25
2018-09-30T09:07:25.546Z,191.25
2018-09-30T09:08:26.337Z,191.25
2018-09-30T09:09:27.457Z,191.25
2018-09-30T09:10:27.937Z,196.88
2018-09-30T09:11:29.457Z,202.5
2018-09-30T09:12:30.258Z,202.5
2018-09-30T09:13:31.658Z,196.88
2018-09-30T09:14:31.186Z,196.88
2018-09-30T09:15:35.633Z,196.88
2018-09-30T09:16:34.042Z,202.5
2018-09-30T09:17:34.885Z,202.5
2018-09-30T09:18:35.688Z,202.5
2018-09-30T09:19:36.207Z,202.5
2018-09-30T09:20:36.727Z,202.5
2018-09-30T09:21:38.083Z,208.13
2018-09-30T09:22:38.978Z,208.13
2018-09-30T09:23:40.355Z,208.13
2018-09-30T09:24:40.523Z,208.13
2018-09-30T09:25:45.917Z,213.75
2018-09-30T09:25:53.040Z,213.75
2018-09-30T09:26:55.122Z,213.75
2018-09-30T09:27:54.690Z,219.38
2018-09-30T09:28:55.764Z,219.38
2018-09-30T09:29:56.840Z,365.63
2018-09-30T09:30:57.079Z,309.38
2018-09-30T09:31:58.604Z,326.25
2018-09-30T09:33:01.339Z,376.88
2018-09-30T09:34:01.501Z,258.75
2018-09-30T09:35:03.792Z,258.75
2018-09-30T09:36:03.435Z,236.25
2018-09-30T09:37:03.436Z,601.88
2018-09-30T09:38:05.513Z,675
2018-09-30T09:39:06.037Z,630
2018-09-30T09:40:06.838Z,855
2018-09-30T09:41:08.477Z,810
2018-09-30T09:42:08.995Z,1040.63
2018-09-30T09:43:09.525Z,793.13
2018-09-30T09:44:11.436Z,315
2018-09-30T09:45:28.572Z,354.38
2018-09-30T09:46:25.729Z,292.5
2018-09-30T09:47:25.251Z,258.75
2018-09-30T09:48:26.605Z,236.25
2018-09-30T09:49:27.131Z,236.25
2018-09-30T09:50:28.653Z,714.38
2018-09-30T09:51:29.741Z,2390.63
2018-09-30T09:52:31.085Z,3245.63
2018-09-30T09:53:30.941Z,3363.75
2018-09-30T09:54:32.311Z,3414.38
2018-09-30T09:55:32.846Z,3465
2018-09-30T09:56:34.108Z,3470.63
2018-09-30T09:57:35.048Z,3470.63
2018-09-30T09:58:36.245Z,3465
2018-09-30T09:59:36.332Z,3453.75
2018-09-30T10:00:37.137Z,3436.88
2018-09-30T10:01:37.663Z,3436.88
2018-09-30T10:02:38.472Z,3459.38
2018-09-30T10:03:39.003Z,3442.5
2018-09-30T10:04:40.810Z,3476.25
2018-09-30T10:05:41.902Z,3504.38
2018-09-30T10:06:43.723Z,3504.38
2018-09-30T10:07:44.825Z,3532.5
2018-09-30T10:08:45.910Z,3521.25
2018-09-30T10:09:50.237Z,3510
2018-09-30T10:10:48.498Z,3504.38
2018-09-30T10:11:49.025Z,3526.88
2018-09-30T10:12:49.563Z,3538.13
2018-09-30T10:13:50.093Z,3555
2018-09-30T10:14:50.905Z,3571.88
2018-09-30T10:15:52.435Z,3566.25
2018-09-30T10:16:52.700Z,3549.38
2018-09-30T10:17:53.510Z,3560.63
2018-09-30T10:18:54.878Z,3600
2018-09-30T10:19:55.412Z,3633.75
2018-09-30T10:20:55.955Z,3639.38
2018-09-30T10:21:56.764Z,3633.75
2018-09-30T10:22:57.853Z,3611.25
2018-09-30T10:23:58.387Z,3588.75
2018-09-30T10:24:59.194Z,3571.88
2018-09-30T10:26:00.004Z,3532.5
2018-09-30T10:27:01.122Z,3543.75
2018-09-30T10:28:00.943Z,3549.38
2018-09-30T10:29:01.754Z,3583.13
2018-09-30T10:30:05.165Z,3611.25
2018-09-30T10:31:05.257Z,3633.75
2018-09-30T10:32:05.066Z,3650.63
2018-09-30T10:33:05.600Z,3633.75
2018-09-30T10:34:07.132Z,3616.88
2018-09-30T10:35:08.224Z,3611.25
2018-09-30T10:36:08.313Z,3600
2018-09-30T10:37:09.723Z,3577.5
2018-09-30T10:38:11.441Z,3571.88
2018-09-30T10:39:14.363Z,3605.63
2018-09-30T10:40:12.191Z,3639.38
2018-09-30T10:41:12.455Z,3673.13
2018-09-30T10:42:13.265Z,3695.63
2018-09-30T10:43:14.356Z,3667.5
2018-09-30T10:44:15.720Z,3678.75
2018-09-30T10:45:16.535Z,3667.5
2018-09-30T10:46:17.349Z,2829.38
2018-09-30T10:47:19.028Z,1035
2018-09-30T10:48:20.527Z,781.88
2018-09-30T10:49:20.625Z,725.63
2018-09-30T10:50:21.159Z,517.5
2018-09-30T10:51:21.968Z,388.13
2018-09-30T10:52:22.779Z,579.38
2018-09-30T10:53:23.312Z,714.38
2018-09-30T10:54:23.837Z,506.25
2018-09-30T10:55:26.546Z,551.25
2018-09-30T10:56:26.043Z,421.88
2018-09-30T10:57:26.624Z,528.75
2018-09-30T10:58:27.707Z,1141.88
2018-09-30T10:59:28.791Z,1248.75
2018-09-30T11:00:29.325Z,1226.25
2018-09-30T11:01:29.851Z,1614.38
2018-09-30T11:02:30.383Z,1929.38
2018-09-30T11:03:32.449Z,2165.63
2018-09-30T11:04:32.826Z,1698.75
2018-09-30T11:05:32.352Z,1350
2018-09-30T11:06:33.878Z,810
2018-09-30T11:07:34.440Z,556.88
2018-09-30T11:08:34.972Z,1299.38
2018-09-30T11:09:37.528Z,1507.5
2018-09-30T11:10:37.247Z,1569.38
2018-09-30T11:11:36.782Z,2070
2018-09-30T11:12:37.304Z,1434.38
2018-09-30T11:13:37.554Z,658.13
2018-09-30T11:14:38.362Z,916.88
2018-09-30T11:15:39.172Z,1063.13
2018-09-30T11:16:39.699Z,708.75
2018-09-30T11:17:41.146Z,624.38
2018-09-30T11:18:42.114Z,472.5
2018-09-30T11:19:42.647Z,450
2018-09-30T11:20:43.176Z,528.75
2018-09-30T11:21:43.429Z,815.63
2018-09-30T11:22:45.512Z,517.5
2018-09-30T11:23:46.042Z,315
2018-09-30T11:24:47.130Z,286.88
2018-09-30T11:25:47.376Z,371.25
2018-09-30T11:26:49.737Z,478.13
2018-09-30T11:27:49.447Z,393.75
2018-09-30T11:28:49.978Z,320.63
2018-09-30T11:29:50.508Z,320.63
2018-09-30T11:30:51.312Z,270
2018-09-30T11:31:53.817Z,354.38
2018-09-30T11:32:52.167Z,315
2018-09-30T11:33:52.693Z,388.13
2018-09-30T11:34:52.949Z,360
2018-09-30T11:35:54.752Z,371.25
2018-09-30T11:36:55.558Z,388.13
2018-09-30T11:37:56.542Z,270
2018-09-30T11:38:58.341Z,286.88
2018-09-30T11:39:59.424Z,303.75
2018-09-30T11:41:00.514Z,270
2018-09-30T11:42:01.650Z,320.63
2018-09-30T11:43:01.736Z,320.63
2018-09-30T11:44:03.101Z,337.5
2018-09-30T11:45:03.743Z,489.38
2018-09-30T11:46:04.549Z,410.63
2018-09-30T11:47:05.643Z,354.38
2018-09-30T11:48:07.286Z,292.5
2018-09-30T11:49:06.813Z,331.88
2018-09-30T11:50:07.903Z,331.88
2018-09-30T11:51:09.822Z,399.38
2018-09-30T11:52:09.352Z,354.38
2018-09-30T11:53:10.714Z,360
2018-09-30T11:54:11.798Z,393.75
2018-09-30T11:55:12.874Z,309.38
2018-09-30T11:56:14.239Z,1288.13
2018-09-30T11:57:13.770Z,1996.88
2018-09-30T11:58:15.301Z,3009.38
2018-09-30T11:59:15.552Z,3116.25
2018-09-30T12:00:16.635Z,3088.13
2018-09-30T12:01:18.321Z,3088.13
2018-09-30T12:02:19.836Z,3071.25
2018-09-30T12:03:19.317Z,2587.5
2018-09-30T12:04:19.845Z,1856.25
2018-09-30T12:05:21.208Z,1693.13
2018-09-30T12:06:21.739Z,2396.25
2018-09-30T12:07:22.556Z,3031.88
2018-09-30T12:08:23.107Z,1141.88
2018-09-30T12:09:23.910Z,1935
2018-09-30T12:10:24.715Z,1243.13
2018-09-30T12:11:24.968Z,2970
2018-09-30T12:12:26.611Z,2964.38
2018-09-30T12:13:26.698Z,2981.25
2018-09-30T12:14:26.509Z,2992.5
2018-09-30T12:15:28.704Z,3003.75
2018-09-30T12:16:29.343Z,2998.13
2018-09-30T12:17:30.708Z,2992.5
2018-09-30T12:18:30.464Z,2970
2018-09-30T12:19:31.877Z,2930.63
2018-09-30T12:20:32.130Z,2913.75
2018-09-30T12:21:34.499Z,2919.38
2018-09-30T12:22:34.579Z,2913.75
2018-09-30T12:23:35.671Z,2295
2018-09-30T12:24:36.200Z,1051.88
2018-09-30T12:25:38.918Z,894.38
2018-09-30T12:26:38.732Z,1805.63
2018-09-30T12:27:39.273Z,2210.63
2018-09-30T12:28:40.844Z,1766.25
2018-09-30T12:29:42.481Z,1035
2018-09-30T12:30:43.290Z,826.88
2018-09-30T12:31:44.374Z,1597.5
2018-09-30T12:32:45.748Z,2491.88
2018-09-30T12:33:46.667Z,2520
2018-09-30T12:34:45.922Z,2143.13
2018-09-30T12:35:46.455Z,2053.13
2018-09-30T12:36:47.817Z,2154.38
2018-09-30T12:37:48.629Z,2008.13
2018-09-30T12:38:50.216Z,1704.38
2018-09-30T12:39:51.581Z,1676.25
2018-09-30T12:40:51.398Z,1732.5
2018-09-30T12:41:52.488Z,1625.63
2018-09-30T12:42:53.147Z,1355.63
2018-09-30T12:43:53.955Z,1119.38
2018-09-30T12:44:55.046Z,1237.5
2018-09-30T12:45:55.859Z,821.25
2018-09-30T12:46:56.384Z,540
2018-09-30T12:47:58.198Z,933.75
2018-09-30T12:48:59.453Z,1507.5
2018-09-30T12:50:00.265Z,2610
2018-09-30T12:51:01.904Z,2621.25
2018-09-30T12:52:01.718Z,2626.88
2018-09-30T12:53:02.528Z,2610
2018-09-30T12:54:03.057Z,2598.75
2018-09-30T12:55:04.311Z,2565
2018-09-30T12:56:05.122Z,2536.88
2018-09-30T12:57:06.482Z,2531.25
2018-09-30T12:58:06.922Z,2475
2018-09-30T12:59:07.053Z,2486.25
2018-09-30T13:00:08.418Z,2503.13
2018-09-30T13:01:08.673Z,2514.38
2018-09-30T13:02:10.200Z,2514.38
2018-09-30T13:03:11.287Z,2497.5
2018-09-30T13:04:11.817Z,2446.88
2018-09-30T13:05:13.461Z,2401.88
2018-09-30T13:06:12.717Z,2351.25
2018-09-30T13:07:14.084Z,2323.13
2018-09-30T13:08:14.896Z,2300.63
2018-09-30T13:09:15.881Z,2289.38
2018-09-30T13:10:16.966Z,2272.5
2018-09-30T13:11:17.787Z,2233.13
2018-09-30T13:12:18.322Z,2199.38
2018-09-30T13:13:18.860Z,2165.63
2018-09-30T13:14:20.219Z,2103.75
2018-09-30T13:15:20.751Z,2053.13
2018-09-30T13:16:21.838Z,2019.38
2018-09-30T13:17:22.371Z,2008.13
2018-09-30T13:18:23.460Z,2036.25
2018-09-30T13:19:24.167Z,2070
2018-09-30T13:20:27.562Z,2064.38
2018-09-30T13:21:27.244Z,1906.88
2018-09-30T13:22:27.881Z,1850.63
2018-09-30T13:23:28.411Z,1788.75
2018-09-30T13:24:30.055Z,1929.38
2018-09-30T13:25:30.870Z,1906.88
2018-09-30T13:26:31.395Z,1985.63
2018-09-30T13:27:32.208Z,1968.75
2018-09-30T13:28:33.580Z,1968.75
2018-09-30T13:29:34.451Z,1974.38
2018-09-30T13:30:36.542Z,1957.5
2018-09-30T13:31:37.354Z,1951.88